2CD9 weather

Kellogg Airstrip
Laporte, Colorado, United States

Public forecast

Using degrees Fahrenheit for public forecast. Weather courtesy of forecast.io.

Closest aviation weather report (METAR) to Kellogg Airstrip

Closest report is Northern Colorado Regional Airport, 15.0 nm (27.7 km) SSE. Retrieved 2019/10/15 17:56 UTC (10 minutes ago):

KFNL 151756Z AUTO 17006KT 10SM CLR 11/M01 A3025 RMK AO2 SLP223 T01111006 10111 20022 58002

Closest aviation forecast (TAF) to Kellogg Airstrip

Closest forecast is Cheyenne Regional Jerry Olson Field, 32.1 nm (59.5 km) NNE. Retrieved 2019/10/15 18:30 UTC (0 seconds ago):

TAF KCYS 151727Z 1518/1618 VRB04KT P6SM FEW250 FM152200 35012KT P6SM SKC FM160200 23010KT P6SM SCT250 FM160800 25010KT P6SM SCT250 FM161700 27012G25KT P6SM SKC